EmailTwitter


Observations de surface / États-Unis / KJFK (74486)

Régions: Québec | Canada | États-Unis | Europe | France | UK | Elsewhere
Station
Affichage
Infos & localisation pour KJFK (74486) | Aide pour décoder les METARs

Observations prises le 2017-06-26 à 04H51 UTC à NEW YORK/JF KENN, NY (KJFK)

Etat du ciel: ciel variable.

Température: 23.3 Celsius

Point de rosée: 11.1 Celsius

Humidité relative: 46%

Indice Humidex: 25.

Vents: Nord-ouest à 33 km/h ou 18 noeuds.

Rafale du vent: 46 km/h ou 25 noeuds.

Pression au niveau moyen de la mer: 101.54 kilopascals.

Calage altimétrique: 101.56 kilopascals ou 29.99 pouces de mercure.

Visibilité horizontale: 10.00 milles terrestres ou 16.00 kilomètres.

Observation METAR:

KJFK 260451Z 33018G25KT 10SM SCT100 23/11 A2999 RMK AO2 SLP154 T02330111

402780206=